createdAt,value
2019-01-09T00:04:19.806Z,98950.30
2019-01-09T00:09:23.907Z,98945.25
2019-01-09T00:14:27.935Z,98949.95
2019-01-09T00:19:32.003Z,98949.48
2019-01-09T00:24:36.226Z,98942.48
2019-01-09T00:29:40.348Z,98943.94
2019-01-09T00:34:44.492Z,98950.81
2019-01-09T00:39:48.530Z,98944.95
2019-01-09T00:44:52.614Z,98951.79
2019-01-09T00:49:56.714Z,98952.95
2019-01-09T00:55:02.010Z,98956.86
2019-01-09T01:00:08.701Z,98955.56
2019-01-09T01:06:00.721Z,98969.60
2019-01-09T01:11:42.179Z,98976.62
2019-01-09T01:17:39.787Z,98986.45
2019-01-09T01:23:15.440Z,98982.98
2019-01-09T01:28:57.846Z,98979.56
2019-01-09T01:34:46.119Z,98985.27
2019-01-09T01:40:26.026Z,98989.13
2019-01-09T01:46:06.328Z,98999.20
2019-01-09T01:51:57.355Z,98990.19
2019-01-09T01:57:46.391Z,99004.50
2019-01-09T02:03:26.121Z,98990.30
2019-01-09T02:09:20.574Z,99001.04
2019-01-09T02:15:14.667Z,99001.86
2019-01-09T02:20:49.035Z,99004.30
2019-01-09T02:26:13.845Z,99008.52
2019-01-09T02:32:04.923Z,99007.73
2019-01-09T02:37:08.692Z,99018.55
2019-01-09T02:42:12.609Z,99010.06
2019-01-09T02:47:16.635Z,99007.57
2019-01-09T02:52:20.659Z,99003.42
2019-01-09T02:57:24.766Z,99015.70
2019-01-09T03:02:28.733Z,99037.71
2019-01-09T03:07:32.672Z,99026.23
2019-01-09T03:12:36.635Z,99024.08
2019-01-09T03:17:40.383Z,99033.05
2019-01-09T03:22:44.289Z,99025.30
2019-01-09T03:27:48.193Z,99025.20
2019-01-09T03:32:52.116Z,99034.11
2019-01-09T03:37:56.078Z,99030.39
2019-01-09T03:42:59.989Z,99031.62
2019-01-09T03:48:03.733Z,99029.91
2019-01-09T03:53:07.717Z,99021.61
2019-01-09T03:58:11.681Z,99020.91
2019-01-09T04:03:15.585Z,99026.79
2019-01-09T04:08:19.673Z,99040.03
2019-01-09T04:13:23.632Z,99040.03
2019-01-09T04:18:27.639Z,99044.27
2019-01-09T04:23:31.637Z,99033.22
2019-01-09T04:28:35.496Z,99049.42
2019-01-09T04:33:39.318Z,99051.43
2019-01-09T04:38:43.361Z,99041.14
2019-01-09T04:43:55.532Z,99047.14
2019-01-09T04:49:00.323Z,99049.27
2019-01-09T04:54:05.888Z,99048.98
2019-01-09T04:59:13.889Z,99068.73
2019-01-09T05:04:17.865Z,99068.45
2019-01-09T05:09:24.190Z,99069.55
2019-01-09T05:14:29.504Z,99080.17
2019-01-09T05:19:34.014Z,99081.64
2019-01-09T05:24:38.376Z,99085.59
2019-01-09T05:29:42.569Z,99093.06
2019-01-09T05:34:47.912Z,99097.76
2019-01-09T05:39:52.110Z,99096.73
2019-01-09T05:44:57.765Z,99106.97
2019-01-09T05:50:04.164Z,99123.78
2019-01-09T05:55:11.704Z,99123.58
2019-01-09T06:00:19.642Z,99111.12
2019-01-09T06:05:23.595Z,99126.13
2019-01-09T06:10:27.819Z,99124.49
2019-01-09T06:15:32.054Z,99142.35
2019-01-09T06:20:36.266Z,99130.64
2019-01-09T06:25:40.388Z,99146.69
2019-01-09T06:30:44.569Z,99145.72
2019-01-09T06:35:48.880Z,99140.71
2019-01-09T06:40:54.243Z,99148.53
2019-01-09T06:46:02.482Z,99147.62
2019-01-09T06:51:06.777Z,99153.55
2019-01-09T06:56:12.437Z,99155.40
2019-01-09T07:01:16.698Z,99176.19
2019-01-09T07:06:22.295Z,99171.30
2019-01-09T07:11:27.855Z,99174.45
2019-01-09T07:16:32.122Z,99190.55
2019-01-09T07:21:45.230Z,99191.03
2019-01-09T07:26:42.234Z,99198.84
2019-01-09T07:31:47.687Z,99194.05
2019-01-09T07:36:51.996Z,99206.30
2019-01-09T07:41:57.265Z,99214.77
2019-01-09T07:47:01.398Z,99213.71
2019-01-09T07:52:05.519Z,99217.63
2019-01-09T07:57:09.561Z,99227.36
2019-01-09T08:02:13.743Z,99221.32
2019-01-09T08:07:19.064Z,99227.27
2019-01-09T08:12:23.336Z,99248.33
2019-01-09T08:17:27.561Z,99243.66
2019-01-09T08:22:33.496Z,99243.86
2019-01-09T08:27:38.695Z,99246.87
2019-01-09T08:32:44.911Z,99244.69
2019-01-09T08:37:48.844Z,99266.35
2019-01-09T08:42:53.135Z,99273.88
2019-01-09T08:47:57.383Z,99273.11
2019-01-09T08:53:01.739Z,99285.16
2019-01-09T08:58:05.906Z,99285.26
2019-01-09T09:03:10.040Z,99297.77
2019-01-09T09:08:15.232Z,99292.11
2019-01-09T09:13:34.339Z,99302.79
2019-01-09T09:18:38.513Z,99309.55
2019-01-09T09:23:42.757Z,99309.83
2019-01-09T09:28:46.846Z,99325.52
2019-01-09T09:33:50.991Z,99326.72
2019-01-09T09:38:55.055Z,99324.98
2019-01-09T09:43:59.119Z,99331.54
2019-01-09T09:49:03.291Z,99334.31
2019-01-09T09:54:07.463Z,99332.52
2019-01-09T09:59:11.580Z,99349.99
2019-01-09T10:04:15.879Z,99349.50
2019-01-09T10:09:20.093Z,99350.84
2019-01-09T10:14:24.385Z,99351.66
2019-01-09T10:19:28.506Z,99363.38
2019-01-09T10:24:32.662Z,99352.91
2019-01-09T10:29:36.914Z,99354.94
2019-01-09T10:34:40.882Z,99353.53
2019-01-09T10:39:44.851Z,99356.56
2019-01-09T10:44:49.038Z,99360.48
2019-01-09T10:49:53.049Z,99357.05
2019-01-09T10:54:58.474Z,99365.96
2019-01-09T11:00:02.691Z,99360.98
2019-01-09T11:05:07.435Z,99364.48
2019-01-09T11:10:12.474Z,99355.05
2019-01-09T11:15:16.613Z,99359.96
2019-01-09T11:20:21.808Z,99367.86
2019-01-09T11:25:27.978Z,99363.98
2019-01-09T11:30:32.172Z,99370.38
2019-01-09T11:35:36.317Z,99370.78
2019-01-09T11:40:40.542Z,99379.99
2019-01-09T11:45:44.585Z,99381.78
2019-01-09T11:50:48.445Z,99391.66
2019-01-09T11:55:52.430Z,99375.73
2019-01-09T12:00:56.299Z,99373.93
2019-01-09T12:06:00.326Z,99373.93
2019-01-09T12:11:04.593Z,99380.58
2019-01-09T12:16:08.646Z,99395.41
2019-01-09T12:21:16.763Z,99403.03
2019-01-09T12:26:18.453Z,99408.75
2019-01-09T12:31:22.517Z,99420.73
2019-01-09T12:36:26.640Z,99422.69
2019-01-09T12:41:30.766Z,99431.34
2019-01-09T12:46:34.723Z,99440.26
2019-01-09T12:51:38.782Z,99450.53
2019-01-09T12:56:42.602Z,99451.89
2019-01-09T13:01:46.635Z,99455.52
2019-01-09T13:06:50.589Z,99458.77
2019-01-09T13:11:54.671Z,99468.80
2019-01-09T13:16:58.496Z,99483.13
2019-01-09T13:22:02.349Z,99476.58
2019-01-09T13:27:06.276Z,99489.14
2019-01-09T13:32:10.317Z,99482.72
2019-01-09T13:37:14.359Z,99499.63
2019-01-09T13:42:18.409Z,99506.17
2019-01-09T13:47:22.708Z,99516.05
2019-01-09T13:52:26.860Z,99516.05
2019-01-09T13:57:30.915Z,99520.70
2019-01-09T14:02:35.205Z,99528.64
2019-01-09T14:07:40.701Z,99538.25
2019-01-09T14:12:44.856Z,99533.70
2019-01-09T14:17:55.243Z,99556.69
2019-01-09T14:22:58.967Z,99558.38
2019-01-09T14:28:02.999Z,99565.72
2019-01-09T14:33:09.329Z,99574.08
2019-01-09T14:38:14.420Z,99580.61
2019-01-09T14:43:18.562Z,99589.22
2019-01-09T14:48:25.501Z,99592.38
2019-01-09T14:53:29.817Z,99597.70
2019-01-09T14:58:35.489Z,99604.06
2019-01-09T15:03:41.241Z,99614.72
2019-01-09T15:08:45.478Z,99620.17
2019-01-09T15:13:51.153Z,99631.45
2019-01-09T15:18:56.454Z,99627.86
2019-01-09T15:24:08.206Z,99638.81
2019-01-09T15:29:08.116Z,99645.53
2019-01-09T15:34:12.572Z,99648.40
2019-01-09T15:39:16.817Z,99653.30
2019-01-09T15:44:24.117Z,99655.52
2019-01-09T15:49:30.903Z,99662.01
2019-01-09T15:54:39.247Z,99669.22
2019-01-09T15:59:49.574Z,99676.77
2019-01-09T16:04:55.011Z,99685.36
2019-01-09T16:10:04.884Z,99688.27
2019-01-09T16:15:11.045Z,99696.56
2019-01-09T16:20:19.166Z,99704.65
2019-01-09T16:25:26.147Z,99707.73
2019-01-09T16:31:18.907Z,99717.59
2019-01-09T16:36:23.110Z,99721.90
2019-01-09T16:41:27.250Z,99721.72
2019-01-09T16:46:31.556Z,99729.20
2019-01-09T16:51:35.708Z,99731.38
2019-01-09T16:56:41.065Z,99733.54
2019-01-09T17:01:45.247Z,99736.08
2019-01-09T17:06:49.443Z,99735.51
2019-01-09T17:11:53.751Z,99743.84
2019-01-09T17:16:58.099Z,99753.81
2019-01-09T17:22:21.369Z,99759.81
2019-01-09T17:27:37.563Z,99763.81
2019-01-09T17:33:03.764Z,99779.24
2019-01-09T17:38:08.025Z,99785.22
2019-01-09T17:43:19.718Z,99793.39
2019-01-09T17:48:25.834Z,99792.25
2019-01-09T17:53:31.804Z,99816.27
2019-01-09T17:58:36.337Z,99810.69
2019-01-09T18:03:41.821Z,99814.30
2019-01-09T18:08:47.259Z,99822.88
2019-01-09T18:13:54.903Z,99825.73
2019-01-09T18:19:00.285Z,99830.52
2019-01-09T18:24:05.655Z,99842.44
2019-01-09T18:29:15.511Z,99845.14
2019-01-09T18:34:31.987Z,99851.28
2019-01-09T18:40:20.655Z,99862.00
2019-01-09T18:45:52.735Z,99862.53
2019-01-09T18:51:34.466Z,99869.09
2019-01-09T18:56:38.971Z,99879.27
2019-01-09T19:01:44.757Z,99892.31
2019-01-09T19:06:50.487Z,99896.36
2019-01-09T19:11:57.647Z,99902.56
2019-01-09T19:17:02.078Z,99907.14
2019-01-09T19:22:06.741Z,99924.09
2019-01-09T19:27:11.086Z,99922.77
2019-01-09T19:32:19.182Z,99929.17
2019-01-09T19:37:25.588Z,99936.37
2019-01-09T19:42:33.816Z,99944.42
2019-01-09T19:47:40.258Z,99953.20
2019-01-09T19:52:46.868Z,99959.30
2019-01-09T19:57:53.665Z,99965.21
2019-01-09T20:02:59.353Z,99972.32
2019-01-09T20:08:06.925Z,99975.08
2019-01-09T20:13:16.672Z,99985.61
2019-01-09T20:18:22.220Z,99992.32
2019-01-09T20:23:26.851Z,99996.25
2019-01-09T20:28:32.530Z,100001.70
2019-01-09T20:33:38.285Z,100008.88
2019-01-09T20:38:48.098Z,100008.88
2019-01-09T20:43:54.888Z,100020.37
2019-01-09T20:49:01.632Z,100027.28
2019-01-09T20:54:09.289Z,100033.34
2019-01-09T20:59:12.430Z,100034.45
2019-01-09T21:04:18.242Z,100047.89
2019-01-09T21:09:24.104Z,100050.34
2019-01-09T21:14:31.034Z,100059.22
2019-01-09T21:19:35.434Z,100072.48
2019-01-09T21:24:40.874Z,100073.80
2019-01-09T21:29:45.061Z,100087.48
2019-01-09T21:34:49.363Z,100087.33
2019-01-09T21:39:53.839Z,100084.86
2019-01-09T21:44:58.512Z,100096.09
2019-01-09T21:50:04.533Z,100103.33
2019-01-09T21:55:09.021Z,100111.47
2019-01-09T22:00:21.994Z,100115.75
2019-01-09T22:05:27.211Z,100117.48
2019-01-09T22:10:35.003Z,100131.16
2019-01-09T22:15:39.734Z,100133.15
2019-01-09T22:20:53.083Z,100140.33
2019-01-09T22:25:57.531Z,100142.21
2019-01-09T22:31:02.988Z,100153.23
2019-01-09T22:36:07.939Z,100157.19
2019-01-09T22:41:16.492Z,100170.40
2019-01-09T22:46:21.464Z,100174.17
2019-01-09T22:51:26.249Z,100176.17
2019-01-09T22:56:30.615Z,100176.94
2019-01-09T23:01:35.423Z,100185.87
2019-01-09T23:06:40.306Z,100189.55
2019-01-09T23:17:52.616Z,100185.09
2019-01-09T23:22:57.075Z,100198.53
2019-01-09T23:28:01.624Z,100201.44
2019-01-09T23:33:06.263Z,100202.20
2019-01-09T23:38:11.052Z,100207.60
2019-01-09T23:43:15.570Z,100205.89
2019-01-09T23:48:20.155Z,100221.13
2019-01-09T23:53:24.731Z,100225.90
2019-01-09T23:58:29.161Z,100225.90
